sensor_id;sensor_type;location;lat;lon;timestamp;P1;durP1;ratioP1;P2;durP2;ratioP2
4756;SDS011;2392;52.578;13.426;2023-09-08T00:00:01;33.13;;;13.33;;
4756;SDS011;2392;52.578;13.426;2023-09-08T00:02:29;30.47;;;12.37;;
4756;SDS011;2392;52.578;13.426;2023-09-08T00:04:56;32.23;;;12.90;;
4756;SDS011;2392;52.578;13.426;2023-09-08T00:07:23;33.57;;;12.60;;
4756;SDS011;2392;52.578;13.426;2023-09-08T00:09:50;34.33;;;13.40;;
4756;SDS011;2392;52.578;13.426;2023-09-08T00:12:17;32.53;;;13.40;;
4756;SDS011;2392;52.578;13.426;2023-09-08T00:14:44;30.87;;;12.90;;
4756;SDS011;2392;52.578;13.426;2023-09-08T00:17:13;31.33;;;13.10;;
4756;SDS011;2392;52.578;13.426;2023-09-08T00:19:40;32.00;;;12.90;;
4756;SDS011;2392;52.578;13.426;2023-09-08T00:22:07;34.97;;;12.77;;
4756;SDS011;2392;52.578;13.426;2023-09-08T00:24:34;28.37;;;11.40;;
4756;SDS011;2392;52.578;13.426;2023-09-08T00:27:01;30.67;;;12.60;;
4756;SDS011;2392;52.578;13.426;2023-09-08T00:29:28;31.73;;;12.67;;
4756;SDS011;2392;52.578;13.426;2023-09-08T00:31:55;31.93;;;12.87;;
4756;SDS011;2392;52.578;13.426;2023-09-08T00:34:23;29.37;;;11.20;;
4756;SDS011;2392;52.578;13.426;2023-09-08T00:36:50;30.87;;;12.40;;
4756;SDS011;2392;52.578;13.426;2023-09-08T00:39:17;30.70;;;13.13;;
4756;SDS011;2392;52.578;13.426;2023-09-08T00:41:44;32.80;;;14.30;;
4756;SDS011;2392;52.578;13.426;2023-09-08T00:44:11;29.57;;;12.57;;
4756;SDS011;2392;52.578;13.426;2023-09-08T00:46:38;30.47;;;13.30;;
4756;SDS011;2392;52.578;13.426;2023-09-08T00:49:06;35.50;;;13.27;;
4756;SDS011;2392;52.578;13.426;2023-09-08T00:51:35;36.03;;;12.07;;
4756;SDS011;2392;52.578;13.426;2023-09-08T00:54:03;34.87;;;13.60;;
4756;SDS011;2392;52.578;13.426;2023-09-08T00:56:31;32.20;;;13.07;;
4756;SDS011;2392;52.578;13.426;2023-09-08T00:59:00;32.50;;;13.47;;
4756;SDS011;2392;52.578;13.426;2023-09-08T01:01:27;32.97;;;12.53;;
4756;SDS011;2392;52.578;13.426;2023-09-08T01:03:54;33.67;;;12.77;;
4756;SDS011;2392;52.578;13.426;2023-09-08T01:06:21;34.13;;;13.23;;
4756;SDS011;2392;52.578;13.426;2023-09-08T01:08:51;35.20;;;13.33;;
4756;SDS011;2392;52.578;13.426;2023-09-08T01:11:19;32.70;;;14.07;;
4756;SDS011;2392;52.578;13.426;2023-09-08T01:13:47;30.57;;;12.57;;
4756;SDS011;2392;52.578;13.426;2023-09-08T01:16:14;38.50;;;13.90;;
4756;SDS011;2392;52.578;13.426;2023-09-08T01:18:41;33.17;;;12.80;;
4756;SDS011;2392;52.578;13.426;2023-09-08T01:24:26;35.97;;;14.73;;
4756;SDS011;2392;52.578;13.426;2023-09-08T01:27:10;31.50;;;13.27;;
4756;SDS011;2392;52.578;13.426;2023-09-08T01:29:40;31.70;;;13.60;;
4756;SDS011;2392;52.578;13.426;2023-09-08T01:32:09;33.27;;;14.63;;
4756;SDS011;2392;52.578;13.426;2023-09-08T01:34:37;32.17;;;14.00;;
4756;SDS011;2392;52.578;13.426;2023-09-08T01:37:04;31.50;;;13.23;;
4756;SDS011;2392;52.578;13.426;2023-09-08T01:39:33;35.77;;;13.53;;
4756;SDS011;2392;52.578;13.426;2023-09-08T01:42:01;34.13;;;14.07;;
4756;SDS011;2392;52.578;13.426;2023-09-08T01:44:29;31.30;;;14.27;;
4756;SDS011;2392;52.578;13.426;2023-09-08T01:46:56;32.33;;;14.00;;
4756;SDS011;2392;52.578;13.426;2023-09-08T01:49:23;33.83;;;13.90;;
4756;SDS011;2392;52.578;13.426;2023-09-08T01:51:51;32.17;;;13.80;;
4756;SDS011;2392;52.578;13.426;2023-09-08T01:54:18;35.23;;;13.90;;
4756;SDS011;2392;52.578;13.426;2023-09-08T01:56:45;34.80;;;13.70;;
4756;SDS011;2392;52.578;13.426;2023-09-08T01:59:12;34.67;;;14.77;;
4756;SDS011;2392;52.578;13.426;2023-09-08T02:01:41;33.40;;;14.40;;
4756;SDS011;2392;52.578;13.426;2023-09-08T02:04:08;32.13;;;14.67;;
4756;SDS011;2392;52.578;13.426;2023-09-08T02:06:35;31.13;;;14.17;;
4756;SDS011;2392;52.578;13.426;2023-09-08T02:09:02;33.00;;;14.10;;
4756;SDS011;2392;52.578;13.426;2023-09-08T02:11:31;31.73;;;13.17;;
4756;SDS011;2392;52.578;13.426;2023-09-08T02:13:58;31.60;;;13.50;;
4756;SDS011;2392;52.578;13.426;2023-09-08T02:16:25;32.67;;;14.23;;
4756;SDS011;2392;52.578;13.426;2023-09-08T02:18:55;34.10;;;14.47;;
4756;SDS011;2392;52.578;13.426;2023-09-08T02:21:22;32.87;;;14.20;;
4756;SDS011;2392;52.578;13.426;2023-09-08T02:23:49;31.83;;;13.93;;
4756;SDS011;2392;52.578;13.426;2023-09-08T02:26:16;32.40;;;13.43;;
4756;SDS011;2392;52.578;13.426;2023-09-08T02:28:43;33.43;;;13.70;;
4756;SDS011;2392;52.578;13.426;2023-09-08T02:31:11;33.00;;;13.43;;
4756;SDS011;2392;52.578;13.426;2023-09-08T02:33:39;31.83;;;13.50;;
4756;SDS011;2392;52.578;13.426;2023-09-08T02:36:08;35.20;;;13.20;;
4756;SDS011;2392;52.578;13.426;2023-09-08T02:38:38;36.47;;;14.37;;
4756;SDS011;2392;52.578;13.426;2023-09-08T02:41:05;33.20;;;15.30;;
4756;SDS011;2392;52.578;13.426;2023-09-08T02:43:32;32.67;;;14.50;;
4756;SDS011;2392;52.578;13.426;2023-09-08T02:45:59;32.17;;;14.00;;
4756;SDS011;2392;52.578;13.426;2023-09-08T02:48:26;31.83;;;14.10;;
4756;SDS011;2392;52.578;13.426;2023-09-08T02:50:53;33.60;;;14.93;;
4756;SDS011;2392;52.578;13.426;2023-09-08T02:53:22;34.60;;;14.70;;
4756;SDS011;2392;52.578;13.426;2023-09-08T02:55:54;32.53;;;13.70;;
4756;SDS011;2392;52.578;13.426;2023-09-08T02:58:21;33.50;;;15.00;;
4756;SDS011;2392;52.578;13.426;2023-09-08T03:00:49;31.07;;;13.13;;
4756;SDS011;2392;52.578;13.426;2023-09-08T03:03:17;34.63;;;14.97;;
4756;SDS011;2392;52.578;13.426;2023-09-08T03:05:44;30.73;;;13.43;;
4756;SDS011;2392;52.578;13.426;2023-09-08T03:08:12;35.53;;;14.30;;
4756;SDS011;2392;52.578;13.426;2023-09-08T03:10:41;35.47;;;14.83;;
4756;SDS011;2392;52.578;13.426;2023-09-08T03:13:08;37.00;;;16.00;;
4756;SDS011;2392;52.578;13.426;2023-09-08T03:15:35;33.40;;;14.70;;
4756;SDS011;2392;52.578;13.426;2023-09-08T03:18:02;37.10;;;14.80;;
4756;SDS011;2392;52.578;13.426;2023-09-08T03:20:29;38.07;;;15.03;;
4756;SDS011;2392;52.578;13.426;2023-09-08T03:22:56;32.20;;;14.30;;
4756;SDS011;2392;52.578;13.426;2023-09-08T03:25:24;36.47;;;16.23;;
4756;SDS011;2392;52.578;13.426;2023-09-08T03:27:52;36.47;;;14.33;;
4756;SDS011;2392;52.578;13.426;2023-09-08T03:30:19;37.20;;;15.00;;
4756;SDS011;2392;52.578;13.426;2023-09-08T03:32:46;35.93;;;15.00;;
4756;SDS011;2392;52.578;13.426;2023-09-08T03:35:13;38.47;;;16.17;;
4756;SDS011;2392;52.578;13.426;2023-09-08T03:37:41;32.67;;;15.13;;
4756;SDS011;2392;52.578;13.426;2023-09-08T03:40:08;33.90;;;14.90;;
4756;SDS011;2392;52.578;13.426;2023-09-08T03:42:36;35.10;;;16.00;;
4756;SDS011;2392;52.578;13.426;2023-09-08T03:45:05;32.73;;;15.67;;
4756;SDS011;2392;52.578;13.426;2023-09-08T03:47:33;36.37;;;15.40;;
4756;SDS011;2392;52.578;13.426;2023-09-08T03:50:01;36.37;;;14.63;;
4756;SDS011;2392;52.578;13.426;2023-09-08T03:52:28;36.20;;;16.03;;
4756;SDS011;2392;52.578;13.426;2023-09-08T03:54:55;36.47;;;17.93;;
4756;SDS011;2392;52.578;13.426;2023-09-08T03:57:23;36.33;;;15.80;;
4756;SDS011;2392;52.578;13.426;2023-09-08T03:59:50;37.83;;;16.97;;
4756;SDS011;2392;52.578;13.426;2023-09-08T04:02:18;36.70;;;16.87;;
4756;SDS011;2392;52.578;13.426;2023-09-08T04:04:45;40.77;;;17.00;;
4756;SDS011;2392;52.578;13.426;2023-09-08T04:07:12;36.13;;;16.23;;
4756;SDS011;2392;52.578;13.426;2023-09-08T04:09:40;36.73;;;16.83;;
4756;SDS011;2392;52.578;13.426;2023-09-08T04:12:08;35.97;;;17.00;;
4756;SDS011;2392;52.578;13.426;2023-09-08T04:14:36;35.43;;;16.43;;
4756;SDS011;2392;52.578;13.426;2023-09-08T04:17:03;36.60;;;16.73;;
4756;SDS011;2392;52.578;13.426;2023-09-08T04:19:32;40.07;;;16.33;;
4756;SDS011;2392;52.578;13.426;2023-09-08T04:21:59;36.70;;;17.10;;
4756;SDS011;2392;52.578;13.426;2023-09-08T04:24:26;37.90;;;17.37;;
4756;SDS011;2392;52.578;13.426;2023-09-08T04:26:53;38.67;;;17.67;;
4756;SDS011;2392;52.578;13.426;2023-09-08T04:29:20;41.67;;;17.70;;
4756;SDS011;2392;52.578;13.426;2023-09-08T04:31:47;41.43;;;18.10;;
4756;SDS011;2392;52.578;13.426;2023-09-08T04:34:14;39.50;;;17.57;;
4756;SDS011;2392;52.578;13.426;2023-09-08T04:36:42;36.37;;;16.77;;
4756;SDS011;2392;52.578;13.426;2023-09-08T04:39:09;41.73;;;16.80;;
4756;SDS011;2392;52.578;13.426;2023-09-08T04:41:37;35.67;;;15.13;;
4756;SDS011;2392;52.578;13.426;2023-09-08T04:44:04;36.90;;;17.97;;
4756;SDS011;2392;52.578;13.426;2023-09-08T04:46:34;36.70;;;16.27;;
4756;SDS011;2392;52.578;13.426;2023-09-08T04:49:03;36.27;;;17.20;;
4756;SDS011;2392;52.578;13.426;2023-09-08T04:51:30;37.70;;;16.53;;
4756;SDS011;2392;52.578;13.426;2023-09-08T04:53:59;37.47;;;17.10;;
4756;SDS011;2392;52.578;13.426;2023-09-08T04:56:26;36.57;;;17.07;;
4756;SDS011;2392;52.578;13.426;2023-09-08T04:58:53;42.30;;;17.00;;
4756;SDS011;2392;52.578;13.426;2023-09-08T05:01:21;37.37;;;17.57;;
4756;SDS011;2392;52.578;13.426;2023-09-08T05:03:48;36.37;;;16.50;;
4756;SDS011;2392;52.578;13.426;2023-09-08T05:06:15;35.67;;;17.07;;
4756;SDS011;2392;52.578;13.426;2023-09-08T05:08:43;38.80;;;17.23;;
4756;SDS011;2392;52.578;13.426;2023-09-08T05:11:12;37.23;;;16.27;;
4756;SDS011;2392;52.578;13.426;2023-09-08T05:13:39;38.53;;;16.30;;
4756;SDS011;2392;52.578;13.426;2023-09-08T05:16:06;38.17;;;17.20;;
4756;SDS011;2392;52.578;13.426;2023-09-08T05:18:39;38.93;;;16.43;;
4756;SDS011;2392;52.578;13.426;2023-09-08T05:21:08;43.37;;;18.50;;
4756;SDS011;2392;52.578;13.426;2023-09-08T05:23:35;41.00;;;17.50;;
4756;SDS011;2392;52.578;13.426;2023-09-08T05:26:02;35.67;;;17.10;;
4756;SDS011;2392;52.578;13.426;2023-09-08T05:28:31;35.80;;;16.10;;
4756;SDS011;2392;52.578;13.426;2023-09-08T05:30:59;38.00;;;17.77;;
4756;SDS011;2392;52.578;13.426;2023-09-08T05:33:26;37.63;;;16.90;;
4756;SDS011;2392;52.578;13.426;2023-09-08T05:35:53;48.60;;;17.10;;
4756;SDS011;2392;52.578;13.426;2023-09-08T05:38:21;39.13;;;17.80;;
4756;SDS011;2392;52.578;13.426;2023-09-08T05:40:50;36.17;;;16.33;;
4756;SDS011;2392;52.578;13.426;2023-09-08T05:43:17;36.87;;;17.10;;
4756;SDS011;2392;52.578;13.426;2023-09-08T05:45:46;41.37;;;16.40;;
4756;SDS011;2392;52.578;13.426;2023-09-08T05:48:13;36.70;;;17.20;;
4756;SDS011;2392;52.578;13.426;2023-09-08T05:50:41;36.23;;;16.60;;
4756;SDS011;2392;52.578;13.426;2023-09-08T05:53:08;40.57;;;19.10;;
4756;SDS011;2392;52.578;13.426;2023-09-08T05:55:35;38.50;;;17.57;;
4756;SDS011;2392;52.578;13.426;2023-09-08T05:58:03;37.97;;;16.90;;
4756;SDS011;2392;52.578;13.426;2023-09-08T06:00:32;36.20;;;17.30;;
4756;SDS011;2392;52.578;13.426;2023-09-08T06:03:01;37.20;;;16.50;;
4756;SDS011;2392;52.578;13.426;2023-09-08T06:05:30;46.97;;;17.63;;
4756;SDS011;2392;52.578;13.426;2023-09-08T06:07:57;41.10;;;17.57;;
4756;SDS011;2392;52.578;13.426;2023-09-08T06:10:24;42.87;;;17.87;;
4756;SDS011;2392;52.578;13.426;2023-09-08T06:12:51;44.73;;;17.93;;
4756;SDS011;2392;52.578;13.426;2023-09-08T06:15:18;43.73;;;17.50;;
4756;SDS011;2392;52.578;13.426;2023-09-08T06:17:45;38.13;;;17.47;;
4756;SDS011;2392;52.578;13.426;2023-09-08T06:20:15;39.47;;;17.13;;
4756;SDS011;2392;52.578;13.426;2023-09-08T06:22:43;39.50;;;18.10;;
4756;SDS011;2392;52.578;13.426;2023-09-08T06:25:10;42.60;;;16.93;;
4756;SDS011;2392;52.578;13.426;2023-09-08T06:27:38;39.23;;;17.40;;
4756;SDS011;2392;52.578;13.426;2023-09-08T06:30:06;39.10;;;17.37;;
4756;SDS011;2392;52.578;13.426;2023-09-08T06:32:34;38.97;;;16.70;;
4756;SDS011;2392;52.578;13.426;2023-09-08T06:35:01;36.30;;;16.97;;
4756;SDS011;2392;52.578;13.426;2023-09-08T06:37:33;37.20;;;17.10;;
4756;SDS011;2392;52.578;13.426;2023-09-08T06:40:02;35.20;;;16.13;;
4756;SDS011;2392;52.578;13.426;2023-09-08T06:42:30;39.63;;;16.30;;
4756;SDS011;2392;52.578;13.426;2023-09-08T06:45:07;43.47;;;16.53;;
4756;SDS011;2392;52.578;13.426;2023-09-08T06:47:35;37.10;;;16.50;;
4756;SDS011;2392;52.578;13.426;2023-09-08T06:50:02;35.77;;;15.50;;
4756;SDS011;2392;52.578;13.426;2023-09-08T06:52:31;43.10;;;15.30;;
4756;SDS011;2392;52.578;13.426;2023-09-08T06:54:58;36.33;;;15.00;;
4756;SDS011;2392;52.578;13.426;2023-09-08T06:57:25;36.60;;;14.80;;
4756;SDS011;2392;52.578;13.426;2023-09-08T06:59:52;33.00;;;13.63;;
4756;SDS011;2392;52.578;13.426;2023-09-08T07:02:20;36.07;;;14.67;;
4756;SDS011;2392;52.578;13.426;2023-09-08T07:04:47;35.30;;;14.77;;
4756;SDS011;2392;52.578;13.426;2023-09-08T07:07:14;35.17;;;15.27;;
4756;SDS011;2392;52.578;13.426;2023-09-08T07:09:42;34.10;;;14.67;;
4756;SDS011;2392;52.578;13.426;2023-09-08T07:12:09;34.37;;;15.33;;
4756;SDS011;2392;52.578;13.426;2023-09-08T07:14:37;42.30;;;15.70;;
4756;SDS011;2392;52.578;13.426;2023-09-08T07:17:04;35.00;;;13.93;;
4756;SDS011;2392;52.578;13.426;2023-09-08T07:19:32;35.73;;;13.93;;
4756;SDS011;2392;52.578;13.426;2023-09-08T07:21:59;35.50;;;15.17;;
4756;SDS011;2392;52.578;13.426;2023-09-08T07:24:26;33.60;;;13.30;;
4756;SDS011;2392;52.578;13.426;2023-09-08T07:26:54;33.60;;;14.00;;
4756;SDS011;2392;52.578;13.426;2023-09-08T07:29:22;36.43;;;14.27;;
4756;SDS011;2392;52.578;13.426;2023-09-08T07:31:49;33.53;;;13.40;;
4756;SDS011;2392;52.578;13.426;2023-09-08T07:34:17;36.07;;;14.40;;
4756;SDS011;2392;52.578;13.426;2023-09-08T07:36:44;30.47;;;13.00;;
4756;SDS011;2392;52.578;13.426;2023-09-08T07:39:11;33.97;;;13.33;;
4756;SDS011;2392;52.578;13.426;2023-09-08T07:41:38;33.20;;;13.50;;
4756;SDS011;2392;52.578;13.426;2023-09-08T07:44:09;31.17;;;12.93;;
4756;SDS011;2392;52.578;13.426;2023-09-08T07:46:37;34.60;;;13.77;;
4756;SDS011;2392;52.578;13.426;2023-09-08T07:49:04;37.40;;;13.00;;
4756;SDS011;2392;52.578;13.426;2023-09-08T07:51:31;33.07;;;13.00;;
4756;SDS011;2392;52.578;13.426;2023-09-08T07:53:58;33.07;;;13.73;;
4756;SDS011;2392;52.578;13.426;2023-09-08T07:56:25;32.73;;;14.20;;
4756;SDS011;2392;52.578;13.426;2023-09-08T07:58:52;33.47;;;13.63;;
4756;SDS011;2392;52.578;13.426;2023-09-08T08:01:20;36.00;;;12.87;;
4756;SDS011;2392;52.578;13.426;2023-09-08T08:03:47;30.60;;;12.50;;
4756;SDS011;2392;52.578;13.426;2023-09-08T08:06:14;30.83;;;12.10;;
4756;SDS011;2392;52.578;13.426;2023-09-08T08:08:41;34.33;;;12.73;;
4756;SDS011;2392;52.578;13.426;2023-09-08T08:11:09;29.90;;;12.40;;
4756;SDS011;2392;52.578;13.426;2023-09-08T08:13:37;37.07;;;12.03;;
4756;SDS011;2392;52.578;13.426;2023-09-08T08:16:04;38.40;;;11.90;;
4756;SDS011;2392;52.578;13.426;2023-09-08T08:18:32;30.17;;;11.80;;
4756;SDS011;2392;52.578;13.426;2023-09-08T08:21:00;30.60;;;12.17;;
4756;SDS011;2392;52.578;13.426;2023-09-08T08:23:28;34.10;;;12.50;;
4756;SDS011;2392;52.578;13.426;2023-09-08T08:25:56;31.20;;;12.50;;
4756;SDS011;2392;52.578;13.426;2023-09-08T08:28:23;43.20;;;12.37;;
4756;SDS011;2392;52.578;13.426;2023-09-08T08:30:50;31.70;;;11.70;;
4756;SDS011;2392;52.578;13.426;2023-09-08T08:33:18;31.90;;;12.10;;
4756;SDS011;2392;52.578;13.426;2023-09-08T08:35:50;32.77;;;11.03;;
4756;SDS011;2392;52.578;13.426;2023-09-08T08:38:18;32.80;;;12.40;;
4756;SDS011;2392;52.578;13.426;2023-09-08T08:40:44;31.83;;;11.93;;
4756;SDS011;2392;52.578;13.426;2023-09-08T08:43:11;32.57;;;12.10;;
4756;SDS011;2392;52.578;13.426;2023-09-08T08:45:38;33.17;;;12.47;;
4756;SDS011;2392;52.578;13.426;2023-09-08T08:48:08;31.10;;;13.53;;
4756;SDS011;2392;52.578;13.426;2023-09-08T08:50:36;31.50;;;11.43;;
4756;SDS011;2392;52.578;13.426;2023-09-08T08:53:06;35.70;;;13.30;;
4756;SDS011;2392;52.578;13.426;2023-09-08T08:55:34;37.40;;;12.73;;
4756;SDS011;2392;52.578;13.426;2023-09-08T08:58:03;35.47;;;11.60;;
4756;SDS011;2392;52.578;13.426;2023-09-08T09:00:32;29.30;;;12.03;;
4756;SDS011;2392;52.578;13.426;2023-09-08T09:03:01;28.60;;;11.77;;
4756;SDS011;2392;52.578;13.426;2023-09-08T09:05:30;32.67;;;12.93;;
4756;SDS011;2392;52.578;13.426;2023-09-08T09:07:58;31.90;;;12.43;;
4756;SDS011;2392;52.578;13.426;2023-09-08T09:10:30;30.07;;;12.00;;
4756;SDS011;2392;52.578;13.426;2023-09-08T09:12:58;30.30;;;11.70;;
4756;SDS011;2392;52.578;13.426;2023-09-08T09:15:28;32.30;;;11.73;;
4756;SDS011;2392;52.578;13.426;2023-09-08T09:18:03;29.47;;;11.80;;
4756;SDS011;2392;52.578;13.426;2023-09-08T09:20:32;31.00;;;11.90;;
4756;SDS011;2392;52.578;13.426;2023-09-08T09:22:59;29.90;;;11.90;;
4756;SDS011;2392;52.578;13.426;2023-09-08T09:25:28;28.57;;;11.53;;
4756;SDS011;2392;52.578;13.426;2023-09-08T09:27:58;30.40;;;12.00;;
4756;SDS011;2392;52.578;13.426;2023-09-08T09:30:26;29.10;;;11.47;;
4756;SDS011;2392;52.578;13.426;2023-09-08T09:32:59;31.63;;;12.90;;
4756;SDS011;2392;52.578;13.426;2023-09-08T09:35:39;29.97;;;11.50;;
4756;SDS011;2392;52.578;13.426;2023-09-08T09:38:07;27.47;;;10.80;;
4756;SDS011;2392;52.578;13.426;2023-09-08T09:40:34;28.60;;;10.60;;
4756;SDS011;2392;52.578;13.426;2023-09-08T09:43:03;26.60;;;10.47;;
4756;SDS011;2392;52.578;13.426;2023-09-08T09:45:32;29.50;;;10.47;;
4756;SDS011;2392;52.578;13.426;2023-09-08T09:48:01;31.33;;;10.90;;
4756;SDS011;2392;52.578;13.426;2023-09-08T09:50:29;28.37;;;10.53;;
4756;SDS011;2392;52.578;13.426;2023-09-08T09:52:58;32.83;;;10.43;;
4756;SDS011;2392;52.578;13.426;2023-09-08T09:55:26;27.33;;;10.13;;
4756;SDS011;2392;52.578;13.426;2023-09-08T09:57:55;28.80;;;10.57;;
4756;SDS011;2392;52.578;13.426;2023-09-08T10:00:27;27.83;;;10.13;;
4756;SDS011;2392;52.578;13.426;2023-09-08T10:02:54;28.00;;;10.27;;
4756;SDS011;2392;52.578;13.426;2023-09-08T10:05:23;31.37;;;9.50;;
4756;SDS011;2392;52.578;13.426;2023-09-08T10:07:51;27.97;;;9.30;;
4756;SDS011;2392;52.578;13.426;2023-09-08T10:10:19;29.57;;;9.90;;
4756;SDS011;2392;52.578;13.426;2023-09-08T10:12:49;26.20;;;9.20;;
4756;SDS011;2392;52.578;13.426;2023-09-08T10:15:20;30.03;;;9.67;;
4756;SDS011;2392;52.578;13.426;2023-09-08T10:17:53;24.70;;;9.03;;
4756;SDS011;2392;52.578;13.426;2023-09-08T10:20:22;23.63;;;8.70;;
4756;SDS011;2392;52.578;13.426;2023-09-08T10:22:52;24.60;;;8.63;;
4756;SDS011;2392;52.578;13.426;2023-09-08T10:25:24;22.23;;;8.27;;
4756;SDS011;2392;52.578;13.426;2023-09-08T10:27:54;21.33;;;7.33;;
4756;SDS011;2392;52.578;13.426;2023-09-08T10:30:22;19.97;;;8.37;;
4756;SDS011;2392;52.578;13.426;2023-09-08T10:32:49;26.17;;;8.33;;
4756;SDS011;2392;52.578;13.426;2023-09-08T10:35:18;19.30;;;7.43;;
4756;SDS011;2392;52.578;13.426;2023-09-08T10:37:45;19.57;;;7.30;;
4756;SDS011;2392;52.578;13.426;2023-09-08T10:40:22;20.03;;;7.90;;
4756;SDS011;2392;52.578;13.426;2023-09-08T10:45:37;17.17;;;7.50;;
4756;SDS011;2392;52.578;13.426;2023-09-08T10:48:06;16.60;;;7.00;;
4756;SDS011;2392;52.578;13.426;2023-09-08T10:50:38;16.37;;;7.43;;
4756;SDS011;2392;52.578;13.426;2023-09-08T10:53:08;16.20;;;7.57;;
4756;SDS011;2392;52.578;13.426;2023-09-08T10:55:42;18.77;;;7.35;;
4756;SDS011;2392;52.578;13.426;2023-09-08T10:58:19;16.85;;;7.38;;
4756;SDS011;2392;52.578;13.426;2023-09-08T11:00:47;20.60;;;6.95;;
4756;SDS011;2392;52.578;13.426;2023-09-08T11:03:26;14.70;;;6.72;;
4756;SDS011;2392;52.578;13.426;2023-09-08T11:05:57;14.85;;;6.40;;
4756;SDS011;2392;52.578;13.426;2023-09-08T11:08:24;15.70;;;6.60;;
4756;SDS011;2392;52.578;13.426;2023-09-08T11:10:53;15.55;;;6.47;;
4756;SDS011;2392;52.578;13.426;2023-09-08T11:13:21;14.05;;;6.20;;
4756;SDS011;2392;52.578;13.426;2023-09-08T11:15:50;14.50;;;6.25;;
4756;SDS011;2392;52.578;13.426;2023-09-08T11:18:25;16.60;;;6.80;;
4756;SDS011;2392;52.578;13.426;2023-09-08T11:20:52;15.80;;;6.65;;
4756;SDS011;2392;52.578;13.426;2023-09-08T11:23:21;17.40;;;6.55;;
4756;SDS011;2392;52.578;13.426;2023-09-08T11:25:49;14.00;;;6.35;;
4756;SDS011;2392;52.578;13.426;2023-09-08T11:28:16;14.45;;;5.90;;
4756;SDS011;2392;52.578;13.426;2023-09-08T11:30:45;14.70;;;6.30;;
4756;SDS011;2392;52.578;13.426;2023-09-08T11:33:13;15.45;;;6.30;;
4756;SDS011;2392;52.578;13.426;2023-09-08T11:35:41;14.23;;;5.90;;
4756;SDS011;2392;52.578;13.426;2023-09-08T11:38:09;15.63;;;6.30;;
4756;SDS011;2392;52.578;13.426;2023-09-08T11:40:38;19.33;;;6.10;;
4756;SDS011;2392;52.578;13.426;2023-09-08T11:43:05;15.18;;;6.30;;
4756;SDS011;2392;52.578;13.426;2023-09-08T11:45:34;15.18;;;6.05;;
4756;SDS011;2392;52.578;13.426;2023-09-08T11:48:01;13.88;;;6.07;;
4756;SDS011;2392;52.578;13.426;2023-09-08T11:50:30;15.07;;;6.40;;
4756;SDS011;2392;52.578;13.426;2023-09-08T11:52:57;19.43;;;5.90;;
4756;SDS011;2392;52.578;13.426;2023-09-08T11:55:25;16.83;;;6.50;;
4756;SDS011;2392;52.578;13.426;2023-09-08T11:57:54;19.53;;;6.50;;
4756;SDS011;2392;52.578;13.426;2023-09-08T12:00:24;21.10;;;7.50;;
4756;SDS011;2392;52.578;13.426;2023-09-08T12:02:53;21.33;;;8.07;;
4756;SDS011;2392;52.578;13.426;2023-09-08T12:05:21;22.17;;;7.37;;
4756;SDS011;2392;52.578;13.426;2023-09-08T12:07:49;20.43;;;7.63;;
4756;SDS011;2392;52.578;13.426;2023-09-08T12:10:17;27.43;;;7.70;;
4756;SDS011;2392;52.578;13.426;2023-09-08T12:12:45;22.07;;;7.67;;
4756;SDS011;2392;52.578;13.426;2023-09-08T12:17:59;22.87;;;8.67;;
4756;SDS011;2392;52.578;13.426;2023-09-08T12:20:28;22.77;;;8.43;;
4756;SDS011;2392;52.578;13.426;2023-09-08T12:22:57;23.00;;;8.43;;
4756;SDS011;2392;52.578;13.426;2023-09-08T12:25:24;23.10;;;8.97;;
4756;SDS011;2392;52.578;13.426;2023-09-08T12:27:53;22.73;;;8.40;;
4756;SDS011;2392;52.578;13.426;2023-09-08T12:30:21;22.83;;;8.87;;
4756;SDS011;2392;52.578;13.426;2023-09-08T12:32:56;21.73;;;7.53;;
4756;SDS011;2392;52.578;13.426;2023-09-08T12:35:25;23.90;;;8.80;;
4756;SDS011;2392;52.578;13.426;2023-09-08T12:37:59;26.17;;;8.80;;
4756;SDS011;2392;52.578;13.426;2023-09-08T12:40:27;23.53;;;9.00;;
4756;SDS011;2392;52.578;13.426;2023-09-08T12:42:57;23.17;;;9.17;;
4756;SDS011;2392;52.578;13.426;2023-09-08T12:45:25;24.60;;;9.90;;
4756;SDS011;2392;52.578;13.426;2023-09-08T12:47:53;25.37;;;8.80;;
4756;SDS011;2392;52.578;13.426;2023-09-08T12:50:24;25.40;;;9.30;;
4756;SDS011;2392;52.578;13.426;2023-09-08T12:52:51;24.50;;;9.07;;
4756;SDS011;2392;52.578;13.426;2023-09-08T12:55:19;24.10;;;8.90;;
4756;SDS011;2392;52.578;13.426;2023-09-08T12:57:46;25.40;;;8.80;;
4756;SDS011;2392;52.578;13.426;2023-09-08T13:00:15;23.97;;;9.00;;
4756;SDS011;2392;52.578;13.426;2023-09-08T13:02:43;26.00;;;8.83;;
4756;SDS011;2392;52.578;13.426;2023-09-08T13:05:11;24.90;;;8.60;;
4756;SDS011;2392;52.578;13.426;2023-09-08T13:07:39;25.57;;;9.67;;
4756;SDS011;2392;52.578;13.426;2023-09-08T13:10:07;25.13;;;9.07;;
4756;SDS011;2392;52.578;13.426;2023-09-08T13:12:34;24.50;;;10.10;;
4756;SDS011;2392;52.578;13.426;2023-09-08T13:15:01;25.67;;;9.83;;
4756;SDS011;2392;52.578;13.426;2023-09-08T13:17:29;24.37;;;9.80;;
4756;SDS011;2392;52.578;13.426;2023-09-08T13:19:56;25.57;;;9.87;;
4756;SDS011;2392;52.578;13.426;2023-09-08T13:22:23;24.73;;;8.80;;
4756;SDS011;2392;52.578;13.426;2023-09-08T13:24:51;25.80;;;9.30;;
4756;SDS011;2392;52.578;13.426;2023-09-08T13:27:18;25.53;;;9.53;;
4756;SDS011;2392;52.578;13.426;2023-09-08T13:29:45;28.70;;;9.93;;
4756;SDS011;2392;52.578;13.426;2023-09-08T13:32:13;26.40;;;8.53;;
4756;SDS011;2392;52.578;13.426;2023-09-08T13:34:40;27.93;;;9.87;;
4756;SDS011;2392;52.578;13.426;2023-09-08T13:37:08;24.90;;;8.90;;
4756;SDS011;2392;52.578;13.426;2023-09-08T13:39:36;25.67;;;10.37;;
4756;SDS011;2392;52.578;13.426;2023-09-08T13:42:05;27.00;;;9.50;;
4756;SDS011;2392;52.578;13.426;2023-09-08T13:44:32;25.30;;;9.50;;
4756;SDS011;2392;52.578;13.426;2023-09-08T13:46:59;26.53;;;9.83;;
4756;SDS011;2392;52.578;13.426;2023-09-08T13:49:26;26.63;;;9.30;;
4756;SDS011;2392;52.578;13.426;2023-09-08T13:51:53;30.50;;;9.23;;
4756;SDS011;2392;52.578;13.426;2023-09-08T13:54:20;25.20;;;9.20;;
4756;SDS011;2392;52.578;13.426;2023-09-08T13:56:56;28.63;;;9.00;;
4756;SDS011;2392;52.578;13.426;2023-09-08T13:59:26;25.40;;;9.50;;
4756;SDS011;2392;52.578;13.426;2023-09-08T14:01:54;26.63;;;9.47;;
4756;SDS011;2392;52.578;13.426;2023-09-08T14:04:22;23.40;;;9.20;;
4756;SDS011;2392;52.578;13.426;2023-09-08T14:06:51;24.00;;;9.90;;
4756;SDS011;2392;52.578;13.426;2023-09-08T14:09:19;24.47;;;9.67;;
4756;SDS011;2392;52.578;13.426;2023-09-08T14:11:46;24.07;;;9.47;;
4756;SDS011;2392;52.578;13.426;2023-09-08T14:14:13;24.77;;;9.63;;
4756;SDS011;2392;52.578;13.426;2023-09-08T14:16:41;27.07;;;9.03;;
4756;SDS011;2392;52.578;13.426;2023-09-08T14:19:09;25.03;;;9.70;;
4756;SDS011;2392;52.578;13.426;2023-09-08T14:21:36;24.50;;;9.27;;
4756;SDS011;2392;52.578;13.426;2023-09-08T14:24:05;24.13;;;9.67;;
4756;SDS011;2392;52.578;13.426;2023-09-08T14:26:32;25.80;;;9.23;;
4756;SDS011;2392;52.578;13.426;2023-09-08T14:29:00;24.43;;;10.20;;
4756;SDS011;2392;52.578;13.426;2023-09-08T14:31:27;25.90;;;10.10;;
4756;SDS011;2392;52.578;13.426;2023-09-08T14:33:56;23.93;;;8.90;;
4756;SDS011;2392;52.578;13.426;2023-09-08T14:36:23;25.70;;;10.00;;
4756;SDS011;2392;52.578;13.426;2023-09-08T14:38:51;22.97;;;9.17;;
4756;SDS011;2392;52.578;13.426;2023-09-08T14:41:18;23.73;;;9.17;;
4756;SDS011;2392;52.578;13.426;2023-09-08T14:43:45;25.57;;;8.73;;
4756;SDS011;2392;52.578;13.426;2023-09-08T14:46:12;23.30;;;8.40;;
4756;SDS011;2392;52.578;13.426;2023-09-08T14:48:39;23.03;;;8.73;;
4756;SDS011;2392;52.578;13.426;2023-09-08T14:51:07;22.77;;;8.53;;